Time;durP1;ratioP1;P1;durP2;ratioP2;P2;SDS_P1;SDS_P2;PMS_P1;PMS_P2;Temp;Humidity;BMP_temperature;BMP_pressure;BME280_temperature;BME280_humidity;BME280_pressure;Samples;Min_cycle;Max_cycle;Signal;HPM_P1;HPM_P2
2021/06/13 00:01:12;;;;;;;2.45;1.10;;;;;;;12.27;66.51;100714.06;4888461;29;20393;-68
2021/06/13 00:03:38;;;;;;;3.60;1.33;;;;;;;12.31;67.57;100715.25;4885951;29;20048;-68
2021/06/13 00:06:05;;;;;;;8.57;2.10;;;;;;;12.26;67.78;100715.94;4886455;29;20135;-68
2021/06/13 00:08:31;;;;;;;5.75;1.67;;;;;;;12.16;68.92;100712.97;4889053;29;20028;-68
2021/06/13 00:10:57;;;;;;;2.63;1.40;;;;;;;12.13;68.07;100716.13;4875754;29;20498;-68
2021/06/13 00:13:24;;;;;;;3.58;1.23;;;;;;;12.05;67.90;100713.75;4877086;29;20045;-68
2021/06/13 00:15:51;;;;;;;5.82;1.38;;;;;;;12.03;67.30;100708.56;4876705;29;20051;-68
2021/06/13 00:18:17;;;;;;;7.18;1.63;;;;;;;12.00;67.76;100712.56;4882836;29;20091;-68
2021/06/13 00:20:43;;;;;;;7.25;1.42;;;;;;;12.06;67.55;100710.00;4867739;29;20032;-68
2021/06/13 00:23:10;;;;;;;10.85;1.50;;;;;;;12.03;67.89;100722.06;4869536;29;20048;-68
2021/06/13 00:25:36;;;;;;;4.50;1.40;;;;;;;12.09;68.79;100714.94;4884030;29;20029;-68
2021/06/13 00:28:02;;;;;;;5.53;1.70;;;;;;;11.94;68.96;100712.59;4881157;29;20491;-68
2021/06/13 00:30:28;;;;;;;4.55;1.63;;;;;;;11.70;70.29;100709.78;4882840;29;20045;-68
2021/06/13 00:32:54;;;;;;;8.27;1.60;;;;;;;11.68;70.75;100711.91;4861746;29;20036;-68
2021/06/13 00:35:22;;;;;;;5.85;1.52;;;;;;;11.57;71.12;100708.91;4888660;29;20436;-68
2021/06/13 00:37:50;;;;;;;4.05;2.40;;;;;;;11.59;70.46;100707.84;4885459;29;20037;-68
2021/06/13 00:40:18;;;;;;;4.35;1.75;;;;;;;11.73;70.06;100703.13;4886332;29;20037;-67
2021/06/13 00:42:44;;;;;;;6.45;1.45;;;;;;;11.77;69.90;100707.03;4877800;29;20673;-68
2021/06/13 00:45:10;;;;;;;3.13;1.13;;;;;;;11.75;70.61;100703.72;4883685;29;20041;-68
2021/06/13 00:47:37;;;;;;;8.07;1.80;;;;;;;11.76;70.72;100697.28;4888118;29;20032;-68
2021/06/13 00:50:32;;;;;;;5.70;1.60;;;;;;;11.66;70.73;100695.94;4883390;29;20040;-69
2021/06/13 00:52:59;;;;;;;8.43;1.67;;;;;;;11.64;70.28;100687.25;4886679;29;20044;-69
2021/06/13 00:55:26;;;;;;;5.47;1.38;;;;;;;11.58;70.38;100685.47;4880626;29;20037;-69
2021/06/13 00:57:53;;;;;;;7.03;1.83;;;;;;;11.64;70.85;100684.56;4891575;29;20119;-67
2021/06/13 01:00:20;;;;;;;7.47;1.85;;;;;;;11.61;71.03;100689.56;4888290;29;20041;-68
2021/06/13 01:02:46;;;;;;;3.60;1.20;;;;;;;11.55;71.30;100692.13;4889559;29;20517;-68
2021/06/13 01:05:12;;;;;;;9.55;2.10;;;;;;;11.49;71.47;100689.50;4884945;29;20045;-67
2021/06/13 01:08:02;;;;;;;7.53;1.73;;;;;;;11.37;72.23;100695.63;4889358;29;20045;-67
2021/06/13 01:10:46;;;;;;;6.63;1.55;;;;;;;11.38;71.71;100697.28;4890302;29;20032;-68
2021/06/13 01:13:35;;;;;;;7.38;1.63;;;;;;;11.38;72.31;100701.88;4890408;29;20044;-67
2021/06/13 01:16:26;;;;;;;4.28;1.80;;;;;;;11.26;73.43;100697.22;4886857;29;20103;-67
2021/06/13 01:18:59;;;;;;;6.18;1.67;;;;;;;11.13;74.06;100700.03;4883371;29;20032;-67
2021/06/13 01:21:32;;;;;;;7.03;1.92;;;;;;;11.27;73.36;100696.16;4881664;29;20148;-68
2021/06/13 01:24:15;;;;;;;5.80;1.73;;;;;;;11.14;74.07;100680.13;4873797;29;20040;-69
2021/06/13 01:27:05;;;;;;;8.82;1.60;;;;;;;11.25;73.36;100679.38;4880486;29;20048;-67
2021/06/13 01:29:40;;;;;;;4.63;1.80;;;;;;;11.26;74.04;100690.97;4873458;29;20040;-67
2021/06/13 01:32:11;;;;;;;7.75;2.03;;;;;;;11.23;74.24;100684.19;4880857;29;20040;-67
2021/06/13 01:34:49;;;;;;;3.15;1.50;;;;;;;11.22;74.15;100679.84;4882440;29;20041;-68
2021/06/13 01:37:20;;;;;;;6.40;1.58;;;;;;;11.25;74.06;100687.47;4882212;29;20036;-69
2021/06/13 01:39:50;;;;;;;6.78;1.67;;;;;;;11.22;74.53;100682.53;4884382;29;20037;-67
2021/06/13 01:42:17;;;;;;;7.90;1.65;;;;;;;11.28;74.06;100687.03;4881304;29;20840;-68
2021/06/13 01:44:46;;;;;;;5.30;1.95;;;;;;;11.30;74.29;100680.59;4876927;29;20044;-68
2021/06/13 01:47:13;;;;;;;6.63;1.50;;;;;;;11.43;74.41;100683.13;4885661;29;20102;-68
2021/06/13 01:49:41;;;;;;;4.40;1.75;;;;;;;11.42;74.73;100686.88;4894860;29;20479;-68
2021/06/13 01:52:10;;;;;;;4.43;1.52;;;;;;;11.24;75.26;100688.53;4881074;29;20047;-68
2021/06/13 01:54:35;;;;;;;3.65;1.70;;;;;;;11.31;75.33;100688.44;4894535;29;20051;-68
2021/06/13 01:57:03;;;;;;;2.22;1.40;;;;;;;11.23;75.73;100686.88;4893337;29;20029;-68
2021/06/13 01:59:30;;;;;;;3.53;1.50;;;;;;;11.24;75.70;100688.53;4887900;29;20048;-68
2021/06/13 02:01:59;;;;;;;5.82;1.85;;;;;;;11.16;76.46;100699.59;4886097;29;20487;-68
2021/06/13 02:04:29;;;;;;;5.32;1.80;;;;;;;11.19;75.02;100695.63;4895352;29;20070;-68
2021/06/13 02:06:59;;;;;;;3.22;1.70;;;;;;;11.25;74.77;100697.41;4894437;29;20032;-68
2021/06/13 02:09:25;;;;;;;8.10;2.33;;;;;;;11.15;75.03;100691.72;4896029;29;20036;-68
2021/06/13 02:11:54;;;;;;;4.78;1.55;;;;;;;11.24;75.19;100690.38;4893022;29;20032;-68
2021/06/13 02:14:23;;;;;;;2.67;1.65;;;;;;;11.15;75.64;100699.81;4880331;29;20073;-68
2021/06/13 02:16:51;;;;;;;7.15;1.77;;;;;;;11.08;75.90;100686.41;4891549;29;20059;-68
2021/06/13 02:19:19;;;;;;;5.72;1.58;;;;;;;11.01;75.96;100689.16;4893349;29;20044;-68
2021/06/13 02:21:46;;;;;;;2.97;1.50;;;;;;;10.92;77.19;100691.31;4884363;29;20045;-68
2021/06/13 02:24:16;;;;;;;5.95;1.88;;;;;;;10.95;76.83;100687.34;4887217;29;20228;-68
2021/06/13 02:26:44;;;;;;;2.95;1.33;;;;;;;10.98;76.63;100690.44;4886422;29;20037;-68
2021/06/13 02:29:10;;;;;;;5.07;1.70;;;;;;;10.86;77.59;100700.28;4888135;29;20029;-68
2021/06/13 02:31:40;;;;;;;4.03;1.70;;;;;;;10.80;77.30;100696.59;4894801;29;20028;-68
2021/06/13 02:34:07;;;;;;;3.28;1.50;;;;;;;10.80;77.48;100698.47;4891171;29;20041;-68
2021/06/13 02:36:33;;;;;;;4.50;1.60;;;;;;;10.74;78.26;100700.16;4897225;29;20096;-68
2021/06/13 02:38:59;;;;;;;3.97;1.48;;;;;;;10.67;79.08;100700.25;4890892;29;20033;-68
2021/06/13 02:41:26;;;;;;;4.55;1.67;;;;;;;10.71;79.44;100700.63;4892032;29;20025;-68
2021/06/13 02:43:52;;;;;;;4.65;1.98;;;;;;;10.97;79.64;100704.97;4890849;29;20084;-68
2021/06/13 02:46:18;;;;;;;4.53;2.00;;;;;;;10.98;79.60;100703.06;4891852;29;20055;-68
2021/06/13 02:48:44;;;;;;;3.58;2.08;;;;;;;11.28;79.70;100702.38;4890378;29;20555;-68
2021/06/13 02:51:12;;;;;;;6.38;1.80;;;;;;;11.37;79.07;100701.03;4879327;29;20056;-68
2021/06/13 02:53:44;;;;;;;9.52;2.10;;;;;;;11.53;78.64;100696.91;4882578;29;20045;-68
2021/06/13 02:56:47;;;;;;;4.32;1.90;;;;;;;11.74;77.88;100702.09;4866071;29;20108;-68
2021/06/13 02:59:28;;;;;;;4.97;1.83;;;;;;;11.90;77.46;100700.63;4889102;29;20040;-68
2021/06/13 03:01:55;;;;;;;6.20;2.08;;;;;;;11.83;77.19;100704.22;4886172;29;20403;-68
2021/06/13 03:04:22;;;;;;;7.45;2.47;;;;;;;11.83;77.34;100704.22;4877107;29;20535;-68
2021/06/13 03:06:54;;;;;;;9.25;1.70;;;;;;;11.65;77.76;100694.31;4873195;29;20074;-68
2021/06/13 03:09:22;;;;;;;8.73;2.42;;;;;;;11.50;78.50;100700.06;4885975;29;20479;-68
2021/06/13 03:11:49;;;;;;;5.95;1.77;;;;;;;11.40;78.64;100695.19;4893951;29;20040;-68
2021/06/13 03:14:16;;;;;;;3.42;1.90;;;;;;;11.30;79.07;100689.47;4875570;29;20554;-68
2021/06/13 03:16:45;;;;;;;2.75;1.55;;;;;;;11.27;79.42;100690.78;4884566;29;20032;-68
2021/06/13 03:19:12;;;;;;;2.38;1.75;;;;;;;11.18;80.21;100694.81;4871495;29;20403;-68
2021/06/13 03:21:39;;;;;;;5.22;2.03;;;;;;;11.19;80.27;100696.47;4871739;29;20049;-68
2021/06/13 03:24:07;;;;;;;3.40;1.90;;;;;;;11.15;80.33;100686.31;4888624;29;20036;-68
2021/06/13 03:26:36;;;;;;;6.00;1.95;;;;;;;11.08;80.87;100683.72;4879228;29;20056;-68
2021/06/13 03:29:03;;;;;;;4.38;2.35;;;;;;;11.14;80.62;100672.03;4887246;29;20100;-68
2021/06/13 03:31:29;;;;;;;7.13;2.40;;;;;;;11.33;80.59;100675.56;4870023;29;20169;-68
2021/06/13 03:33:56;;;;;;;3.40;2.05;;;;;;;11.42;80.15;100681.47;4877709;29;20052;-68
2021/06/13 03:36:23;;;;;;;7.80;2.28;;;;;;;11.43;80.31;100675.84;4876136;29;20119;-68
2021/06/13 03:38:51;;;;;;;4.97;2.50;;;;;;;11.51;80.53;100657.75;4881555;29;20032;-68
2021/06/13 03:41:19;;;;;;;7.72;2.50;;;;;;;11.68;80.58;100671.41;4887762;29;20024;-68
2021/06/13 03:43:46;;;;;;;6.18;2.22;;;;;;;11.79;80.25;100664.44;4865970;29;20064;-68
2021/06/13 03:46:13;;;;;;;3.20;2.08;;;;;;;11.88;80.59;100673.03;4889091;29;20031;-69
2021/06/13 03:48:39;;;;;;;7.82;2.22;;;;;;;12.06;80.44;100672.22;4877471;29;20037;-68
2021/06/13 03:51:06;;;;;;;6.03;2.00;;;;;;;12.11;80.23;100675.84;4874521;29;20056;-68
2021/06/13 03:53:32;;;;;;;5.47;2.10;;;;;;;12.24;80.63;100671.31;4875290;29;20045;-68
2021/06/13 03:56:04;;;;;;;8.60;2.75;;;;;;;12.38;80.49;100675.47;4879973;29;20044;-68
2021/06/13 03:58:32;;;;;;;7.53;2.15;;;;;;;12.53;79.78;100671.50;4881342;29;20040;-67
2021/06/13 04:00:58;;;;;;;5.85;2.05;;;;;;;12.64;79.88;100669.88;4883492;29;20028;-68
2021/06/13 04:03:25;;;;;;;3.28;1.80;;;;;;;12.70;79.76;100671.63;4883174;29;20040;-68
2021/06/13 04:05:51;;;;;;;3.65;2.05;;;;;;;12.68;79.97;100673.75;4868956;29;20064;-69
2021/06/13 04:08:19;;;;;;;6.22;2.20;;;;;;;12.73;80.11;100669.31;4886915;29;20119;-68
2021/06/13 04:10:49;;;;;;;2.30;1.60;;;;;;;12.72;80.20;100680.34;4883222;29;20033;-68
2021/06/13 04:13:15;;;;;;;5.45;2.03;;;;;;;12.65;80.69;100679.63;4873929;29;20037;-68
2021/06/13 04:15:44;;;;;;;2.70;1.80;;;;;;;12.63;81.08;100677.16;4891372;29;20049;-69
2021/06/13 04:18:10;;;;;;;4.13;1.95;;;;;;;12.62;81.38;100680.91;4876585;29;20032;-68
2021/06/13 04:20:38;;;;;;;3.78;1.90;;;;;;;12.65;81.23;100680.47;4873687;29;20112;-68
2021/06/13 04:23:06;;;;;;;3.53;1.73;;;;;;;12.66;81.56;100682.09;4879008;29;20043;-68
2021/06/13 04:25:32;;;;;;;3.67;2.10;;;;;;;12.69;81.70;100678.94;4878909;29;20119;-68
2021/06/13 04:27:58;;;;;;;7.18;2.03;;;;;;;12.81;82.01;100695.16;4879343;29;20173;-68
2021/06/13 04:30:24;;;;;;;6.13;2.33;;;;;;;12.84;81.41;100689.28;4876647;29;20127;-68
2021/06/13 04:32:50;;;;;;;4.90;2.03;;;;;;;12.84;80.64;100700.09;4889641;29;20611;-68
2021/06/13 04:35:16;;;;;;;6.15;2.10;;;;;;;12.86;80.36;100697.16;4861624;29;20037;-68
2021/06/13 04:37:41;;;;;;;4.85;2.30;;;;;;;12.87;80.18;100696.09;4887743;29;20045;-68
2021/06/13 04:40:08;;;;;;;8.05;2.42;;;;;;;12.82;80.48;100704.91;4886707;29;20399;-68
2021/06/13 04:42:35;;;;;;;4.15;2.00;;;;;;;12.79;80.69;100701.84;4886269;29;20062;-68
2021/06/13 04:45:06;;;;;;;6.43;2.30;;;;;;;12.83;80.82;100713.84;4893518;29;20168;-68
2021/06/13 04:47:32;;;;;;;2.63;1.70;;;;;;;12.88;80.87;100719.38;4878504;29;20041;-68
2021/06/13 04:49:59;;;;;;;5.20;2.38;;;;;;;12.91;80.74;100721.63;4892350;29;20032;-68
2021/06/13 04:52:28;;;;;;;7.07;2.42;;;;;;;12.95;79.49;100725.50;4861507;29;20053;-68
2021/06/13 04:55:14;;;;;;;4.43;2.17;;;;;;;13.06;79.27;100714.91;4877870;29;20048;-69
2021/06/13 04:58:13;;;;;;;6.00;2.05;;;;;;;13.21;78.75;100719.84;4884776;29;20048;-69
2021/06/13 05:00:39;;;;;;;4.00;1.80;;;;;;;13.36;78.39;100717.50;4874402;29;20029;-68
2021/06/13 05:03:06;;;;;;;3.53;1.90;;;;;;;13.43;78.49;100720.09;4874615;29;20518;-68
2021/06/13 05:05:31;;;;;;;5.40;2.00;;;;;;;13.51;78.20;100724.34;4884855;29;20041;-68
2021/06/13 05:07:57;;;;;;;5.57;1.60;;;;;;;13.57;78.50;100726.91;4882745;29;20041;-69
2021/06/13 05:10:24;;;;;;;8.35;1.95;;;;;;;13.61;78.69;100728.06;4882201;29;20071;-69
2021/06/13 05:12:52;;;;;;;6.57;2.03;;;;;;;13.80;77.78;100725.19;4875911;29;20115;-69
2021/06/13 05:15:19;;;;;;;7.68;2.47;;;;;;;14.23;76.19;100719.53;4887284;29;20079;-69
2021/06/13 05:17:45;;;;;;;6.32;2.05;;;;;;;14.57;74.87;100719.56;4868845;29;20501;-69
2021/06/13 05:20:11;;;;;;;4.10;1.90;;;;;;;15.12;72.98;100720.75;4893276;29;20040;-69
2021/06/13 05:22:58;;;;;;;7.70;1.80;;;;;;;15.59;71.60;100722.16;4870768;29;20072;-69
2021/06/13 05:25:26;;;;;;;3.45;1.50;;;;;;;15.97;69.93;100719.69;4891850;29;20053;-69
2021/06/13 05:27:54;;;;;;;7.95;1.98;;;;;;;16.42;69.78;100720.41;4886140;29;20043;-69
2021/06/13 05:30:19;;;;;;;2.65;1.48;;;;;;;17.06;67.59;100709.78;4885502;29;20021;-70
2021/06/13 05:32:45;;;;;;;3.33;1.20;;;;;;;17.39;65.76;100710.50;4871127;29;20131;-68
2021/06/13 05:35:11;;;;;;;4.50;1.50;;;;;;;17.37;65.08;100713.50;4882772;29;20471;-68
2021/06/13 05:37:37;;;;;;;3.67;1.58;;;;;;;17.32;65.40;100718.09;4870324;29;20092;-68
2021/06/13 05:40:05;;;;;;;3.83;1.52;;;;;;;17.16;65.83;100715.28;4892802;29;20029;-68
2021/06/13 05:42:31;;;;;;;4.93;1.50;;;;;;;17.08;65.86;100716.59;4881146;29;20021;-68
2021/06/13 05:44:56;;;;;;;6.97;1.67;;;;;;;17.22;65.71;100718.84;4867679;29;20060;-68
2021/06/13 05:47:22;;;;;;;4.47;1.48;;;;;;;17.44;64.63;100721.44;4884052;29;20041;-67
2021/06/13 05:49:47;;;;;;;4.10;1.60;;;;;;;17.66;64.32;100726.69;4892747;29;20381;-68
2021/06/13 05:52:13;;;;;;;5.10;1.75;;;;;;;17.95;63.45;100729.00;4884214;29;20044;-68
2021/06/13 05:54:39;;;;;;;5.30;1.65;;;;;;;18.23;62.66;100737.81;4898085;29;20071;-68
2021/06/13 05:57:05;;;;;;;3.05;1.52;;;;;;;18.21;61.19;100728.25;4885946;29;20029;-68
2021/06/13 05:59:31;;;;;;;6.22;1.98;;;;;;;18.38;60.64;100726.09;4891330;29;20056;-69
2021/06/13 06:01:57;;;;;;;2.47;1.48;;;;;;;18.34;60.10;100732.38;4887903;29;20033;-69
2021/06/13 06:04:22;;;;;;;4.32;1.42;;;;;;;18.19;60.81;100724.97;4888657;29;20409;-68
2021/06/13 06:06:48;;;;;;;5.22;1.40;;;;;;;18.43;60.10;100709.75;4894004;29;20040;-68
2021/06/13 06:09:13;;;;;;;8.35;1.73;;;;;;;18.79;58.72;100717.13;4880727;29;20028;-68
2021/06/13 06:11:42;;;;;;;4.32;1.80;;;;;;;18.83;58.68;100718.22;4885760;29;20044;-70
2021/06/13 06:14:09;;;;;;;4.28;1.58;;;;;;;18.71;59.23;100723.13;4881658;29;20044;-68
2021/06/13 06:16:35;;;;;;;4.60;1.60;;;;;;;18.53;59.33;100728.03;4883243;29;20491;-68
2021/06/13 06:19:01;;;;;;;9.43;2.08;;;;;;;18.29;59.76;100733.19;4883030;29;20112;-69
2021/06/13 06:21:27;;;;;;;6.10;1.90;;;;;;;18.25;59.56;100732.91;4890833;29;20126;-71
2021/06/13 06:23:53;;;;;;;8.40;1.90;;;;;;;18.36;59.35;100733.75;4878469;29;20131;-72
2021/06/13 06:26:20;;;;;;;3.80;2.05;;;;;;;18.13;60.22;100735.06;4879106;29;20499;-71
2021/06/13 06:28:46;;;;;;;9.88;2.25;;;;;;;18.48;58.87;100727.19;4881520;29;20704;-72
2021/06/13 06:31:12;;;;;;;4.93;2.13;;;;;;;18.60;59.15;100722.31;4883700;29;20037;-72
2021/06/13 06:33:41;;;;;;;3.53;1.52;;;;;;;18.58;59.32;100725.31;4886507;29;20045;-70
2021/06/13 06:36:07;;;;;;;6.45;1.98;;;;;;;18.89;59.11;100727.22;4879773;29;20089;-72
2021/06/13 06:38:33;;;;;;;4.30;1.85;;;;;;;19.33;58.06;100727.72;4882158;29;20040;-72
2021/06/13 06:40:59;;;;;;;4.18;1.63;;;;;;;19.73;56.94;100729.50;4881170;29;20036;-72
2021/06/13 06:43:25;;;;;;;2.70;1.60;;;;;;;20.11;55.63;100736.44;4879013;29;20136;-71
2021/06/13 06:45:51;;;;;;;4.38;1.60;;;;;;;19.68;56.84;100732.25;4888825;29;20029;-72
2021/06/13 06:48:17;;;;;;;5.50;1.65;;;;;;;19.47;58.04;100733.44;4887656;29;20047;-72
2021/06/13 06:50:43;;;;;;;4.60;1.70;;;;;;;19.31;58.70;100730.72;4886161;29;20661;-69
2021/06/13 06:53:09;;;;;;;4.72;1.63;;;;;;;19.06;59.77;100726.16;4882042;29;20125;-70
2021/06/13 06:55:35;;;;;;;8.70;1.92;;;;;;;18.84;60.74;100727.22;4887936;29;20036;-71
2021/06/13 06:58:00;;;;;;;6.38;1.40;;;;;;;18.51;62.15;100732.94;4884487;29;20033;-72
2021/06/13 07:00:26;;;;;;;5.47;1.73;;;;;;;18.35;62.50;100736.75;4891562;29;20036;-71
2021/06/13 07:02:51;;;;;;;5.78;2.03;;;;;;;18.13;63.53;100737.81;4877487;29;20041;-72
2021/06/13 07:05:17;;;;;;;3.65;1.83;;;;;;;18.03;64.23;100743.22;4878222;29;20064;-72
2021/06/13 07:07:43;;;;;;;7.90;1.90;;;;;;;17.92;64.70;100740.44;4881139;29;20033;-72
2021/06/13 07:10:10;;;;;;;4.80;1.80;;;;;;;17.89;65.44;100738.25;4880278;29;20032;-72
2021/06/13 07:12:37;;;;;;;4.78;1.95;;;;;;;18.04;65.17;100742.13;4878544;29;20053;-72
2021/06/13 07:15:04;;;;;;;9.35;1.77;;;;;;;18.10;64.76;100743.78;4877920;29;20396;-72
2021/06/13 07:17:30;;;;;;;5.70;1.90;;;;;;;18.23;64.70;100739.72;4885021;29;20481;-71
2021/06/13 07:19:55;;;;;;;3.33;1.80;;;;;;;18.19;64.61;100749.53;4887441;29;20044;-72
2021/06/13 07:22:22;;;;;;;6.15;1.80;;;;;;;18.26;64.95;100742.75;4887560;29;20037;-72
2021/06/13 07:24:54;;;;;;;4.32;1.83;;;;;;;18.32;64.70;100738.09;4886075;29;20043;-72
2021/06/13 07:27:20;;;;;;;6.35;2.20;;;;;;;18.31;64.45;100741.91;4884372;29;20044;-72
2021/06/13 07:29:48;;;;;;;6.50;2.10;;;;;;;18.41;65.02;100747.38;4883048;29;20035;-72
2021/06/13 07:32:15;;;;;;;4.32;2.15;;;;;;;18.55;64.13;100738.66;4883796;29;20041;-72
2021/06/13 07:34:41;;;;;;;3.85;1.95;;;;;;;18.50;64.39;100744.13;4880330;29;20077;-71
2021/06/13 07:37:07;;;;;;;6.93;2.13;;;;;;;18.56;64.46;100743.06;4891895;29;20080;-72
2021/06/13 07:39:33;;;;;;;5.22;2.33;;;;;;;18.59;63.69;100750.69;4874394;29;20182;-72
2021/06/13 07:41:59;;;;;;;5.93;2.30;;;;;;;18.68;64.17;100748.22;4883437;29;20120;-72
2021/06/13 07:44:28;;;;;;;7.47;1.95;;;;;;;18.86;64.13;100752.34;4878001;29;20102;-72
2021/06/13 07:46:54;;;;;;;9.00;2.00;;;;;;;19.03;63.66;100746.59;4891523;29;20068;-72
2021/06/13 07:49:20;;;;;;;5.25;2.08;;;;;;;19.08;63.47;100743.06;4890482;29;20041;-72
2021/06/13 07:51:46;;;;;;;6.97;2.00;;;;;;;19.15;62.78;100749.06;4892151;29;20051;-72
2021/06/13 07:54:12;;;;;;;10.13;1.90;;;;;;;19.16;63.00;100746.03;4888374;29;20037;-72
2021/06/13 07:56:37;;;;;;;6.95;2.10;;;;;;;19.12;63.06;100746.88;4891495;29;20111;-73
2021/06/13 07:59:03;;;;;;;5.25;2.35;;;;;;;19.08;63.33;100751.25;4879848;29;20039;-71
2021/06/13 08:01:29;;;;;;;9.10;2.28;;;;;;;19.22;63.21;100748.75;4878604;29;20112;-72
2021/06/13 08:03:54;;;;;;;7.53;1.80;;;;;;;19.36;62.97;100743.56;4872638;29;20045;-72
2021/06/13 08:06:20;;;;;;;7.63;2.00;;;;;;;19.47;62.64;100739.69;4885581;29;20080;-73
2021/06/13 08:08:46;;;;;;;5.47;2.15;;;;;;;19.65;61.86;100740.19;4889398;29;20025;-71
2021/06/13 08:11:12;;;;;;;7.00;2.42;;;;;;;19.87;62.17;100737.88;4889212;29;20115;-71
2021/06/13 08:13:37;;;;;;;4.75;1.90;;;;;;;20.11;61.46;100739.19;4885042;29;20104;-72
2021/06/13 08:16:04;;;;;;;6.53;2.38;;;;;;;20.31;60.59;100746.41;4889275;29;20052;-72
2021/06/13 08:18:30;;;;;;;6.40;2.05;;;;;;;20.60;59.56;100742.97;4871716;29;20075;-72
2021/06/13 08:20:56;;;;;;;5.65;2.10;;;;;;;21.04;58.46;100739.31;4876123;29;20056;-72
2021/06/13 08:23:22;;;;;;;4.40;1.60;;;;;;;20.95;58.22;100740.22;4882385;29;20037;-72
2021/06/13 08:25:49;;;;;;;3.15;0.90;;;;;;;21.06;56.54;100747.22;4881731;29;20033;-72
2021/06/13 08:28:15;;;;;;;8.25;1.58;;;;;;;21.14;55.91;100749.34;4886062;29;20033;-72
2021/06/13 08:30:41;;;;;;;4.20;0.98;;;;;;;21.27;56.22;100745.09;4891179;29;20084;-71
2021/06/13 08:33:07;;;;;;;2.85;0.93;;;;;;;21.38;55.25;100745.84;4883442;29;20036;-72
2021/06/13 08:35:32;;;;;;;2.20;0.88;;;;;;;21.38;55.54;100747.75;4883812;29;20039;-72
2021/06/13 08:38:01;;;;;;;1.40;0.60;;;;;;;21.31;55.28;100743.41;4888605;29;20037;-71
2021/06/13 08:40:27;;;;;;;3.22;0.90;;;;;;;21.09;56.88;100746.66;4872035;29;20037;-72
2021/06/13 08:42:52;;;;;;;3.03;0.70;;;;;;;21.07;55.63;100740.66;4889171;29;20046;-72
2021/06/13 08:45:22;;;;;;;3.88;0.88;;;;;;;21.11;54.88;100736.22;4894883;29;20040;-72
2021/06/13 08:47:51;;;;;;;4.68;1.00;;;;;;;21.09;55.64;100740.38;4883714;29;20063;-73
2021/06/13 08:50:18;;;;;;;2.08;0.63;;;;;;;21.27;55.67;100736.88;4887673;29;20040;-73
2021/06/13 08:52:47;;;;;;;2.10;0.85;;;;;;;21.55;54.17;100734.38;4892941;29;20041;-73
2021/06/13 08:55:15;;;;;;;2.55;1.00;;;;;;;21.54;54.40;100735.50;4890146;29;20482;-72
2021/06/13 08:57:40;;;;;;;2.83;0.98;;;;;;;21.61;55.05;100738.69;4885131;29;20051;-72
2021/06/13 09:00:09;;;;;;;3.58;1.15;;;;;;;21.79;53.67;100737.13;4889974;29;20044;-71
2021/06/13 09:02:35;;;;;;;4.30;1.23;;;;;;;21.72;54.26;100733.94;4879752;29;20043;-71
2021/06/13 09:05:00;;;;;;;5.32;1.25;;;;;;;21.67;55.22;100739.50;4878656;29;20032;-72
2021/06/13 09:07:26;;;;;;;1.65;0.90;;;;;;;21.77;54.94;100735.78;4881972;29;20041;-72
2021/06/13 09:09:52;;;;;;;1.75;0.70;;;;;;;21.79;54.50;100733.56;4870823;29;20124;-72
2021/06/13 09:12:19;;;;;;;1.33;0.55;;;;;;;21.64;54.10;100732.66;4886608;29;20063;-71
2021/06/13 09:14:47;;;;;;;1.10;0.52;;;;;;;21.20;54.70;100733.69;4891490;29;20067;-71
2021/06/13 09:17:14;;;;;;;2.78;0.60;;;;;;;20.89;54.89;100728.50;4865350;29;20060;-70
2021/06/13 09:20:01;;;;;;;1.48;0.40;;;;;;;20.79;55.97;100726.66;4875717;29;20052;-71
2021/06/13 09:22:27;;;;;;;3.13;0.73;;;;;;;20.96;56.02;100722.69;4871913;29;20041;-72
2021/06/13 09:25:13;;;;;;;3.55;1.50;;;;;;;20.97;55.41;100716.09;4877510;29;20069;-71
2021/06/13 09:27:41;;;;;;;0.82;0.50;;;;;;;21.11;54.90;100717.06;4884761;29;20037;-71
2021/06/13 09:30:10;;;;;;;2.92;0.60;;;;;;;21.11;55.94;100721.72;4883749;29;20024;-71
2021/06/13 09:33:09;;;;;;;1.40;0.70;;;;;;;21.10;56.10;100720.09;4882475;29;20398;-71
2021/06/13 09:35:35;;;;;;;2.28;0.63;;;;;;;21.35;56.20;100722.56;4878931;29;20045;-71
2021/06/13 09:38:13;;;;;;;2.78;0.60;;;;;;;21.71;55.63;100724.09;4883131;29;20044;-71
2021/06/13 09:40:41;;;;;;;1.50;0.60;;;;;;;21.90;53.95;100728.78;4882109;29;20043;-71
2021/06/13 09:43:19;;;;;;;1.10;0.40;;;;;;;22.13;52.48;100734.50;4876874;29;21016;-71
2021/06/13 09:45:54;;;;;;;1.27;0.60;;;;;;;21.91;53.11;100733.16;4893760;29;20040;-71
2021/06/13 09:48:21;;;;;;;3.60;0.88;;;;;;;22.01;52.78;100737.66;4875649;29;20124;-71
2021/06/13 09:50:52;;;;;;;1.27;0.55;;;;;;;22.17;52.49;100743.75;4890023;29;20047;-71
2021/06/13 09:53:32;;;;;;;0.82;0.40;;;;;;;22.06;52.89;100741.16;4869713;29;20064;-72
2021/06/13 09:56:04;;;;;;;0.80;0.60;;;;;;;22.18;52.45;100734.41;4878221;29;20037;-71
2021/06/13 09:58:31;;;;;;;1.35;0.50;;;;;;;22.20;52.32;100743.16;4880553;29;20073;-72
2021/06/13 10:01:27;;;;;;;1.00;0.60;;;;;;;22.10;53.00;100740.56;4878296;29;20493;-72
2021/06/13 10:03:52;;;;;;;1.48;0.70;;;;;;;22.16;53.13;100733.91;4887447;29;20061;-73
2021/06/13 10:06:19;;;;;;;0.70;0.35;;;;;;;22.30;52.58;100732.03;4547598;29;10000508;-73
2021/06/13 10:08:47;;;;;;;2.25;0.82;;;;;;;22.19;53.48;100725.06;4882262;29;20730;-73
2021/06/13 10:11:14;;;;;;;1.55;0.55;;;;;;;22.32;51.43;100729.81;4878184;29;20088;-73
2021/06/13 10:13:45;;;;;;;1.30;0.60;;;;;;;22.31;51.91;100719.94;4876928;29;20135;-73
2021/06/13 10:16:43;;;;;;;0.50;0.40;;;;;;;22.32;52.45;100726.28;4889861;29;20124;-73
2021/06/13 10:19:13;;;;;;;0.65;0.45;;;;;;;22.65;51.17;100726.31;4879014;29;20037;-72
2021/06/13 10:21:45;;;;;;;2.03;0.65;;;;;;;22.46;51.80;100718.09;4891401;29;20059;-72
2021/06/13 10:24:24;;;;;;;3.15;0.50;;;;;;;22.38;51.53;100722.34;4877577;29;20614;-75
2021/06/13 10:26:55;;;;;;;3.33;0.60;;;;;;;22.37;52.17;100720.69;4884400;29;20053;-73
2021/06/13 10:29:23;;;;;;;2.60;0.65;;;;;;;22.30;52.18;100717.53;4876252;29;20037;-73
2021/06/13 10:31:50;;;;;;;1.70;0.65;;;;;;;22.33;52.77;100720.47;4880913;29;20038;-75
2021/06/13 10:34:17;;;;;;;2.67;0.80;;;;;;;22.34;52.07;100724.84;4876265;29;20055;-74
2021/06/13 10:36:44;;;;;;;1.42;0.60;;;;;;;22.47;51.94;100728.81;4881606;29;20044;-72
2021/06/13 10:39:13;;;;;;;1.30;0.60;;;;;;;22.30;51.68;100715.56;4873850;29;20053;-72
2021/06/13 10:41:40;;;;;;;3.80;0.82;;;;;;;22.57;51.57;100714.09;4882943;29;20103;-74
2021/06/13 10:44:14;;;;;;;4.43;0.80;;;;;;;22.58;52.15;100717.66;4879923;29;20033;-74
2021/06/13 10:46:43;;;;;;;1.60;0.80;;;;;;;22.64;51.73;100710.97;4879152;29;20033;-73
2021/06/13 10:49:40;;;;;;;5.13;1.00;;;;;;;22.67;51.36;100718.59;4875315;29;20029;-74
2021/06/13 10:52:16;;;;;;;5.35;1.02;;;;;;;22.71;50.46;100713.31;4882080;29;20187;-74
2021/06/13 10:54:51;;;;;;;0.73;0.50;;;;;;;22.56;50.84;100715.19;4884328;29;20041;-74
2021/06/13 10:57:19;;;;;;;1.48;0.80;;;;;;;22.66;51.06;100711.47;4874703;29;20434;-74
2021/06/13 10:59:57;;;;;;;1.65;0.65;;;;;;;22.52;51.17;100715.00;4884464;29;20028;-74
2021/06/13 11:02:24;;;;;;;1.52;0.63;;;;;;;22.52;51.03;100719.66;4877672;29;20037;-73
2021/06/13 11:04:53;;;;;;;2.33;0.70;;;;;;;22.69;50.47;100721.03;4886372;29;20137;-74
2021/06/13 11:07:46;;;;;;;2.13;0.80;;;;;;;22.66;51.26;100708.72;4883348;29;20040;-73
2021/06/13 11:10:16;;;;;;;4.45;0.70;;;;;;;22.58;52.06;100707.47;4888814;29;20483;-74
2021/06/13 11:12:59;;;;;;;3.47;0.90;;;;;;;22.64;51.14;100689.81;4878804;29;20033;-74
2021/06/13 11:15:28;;;;;;;3.22;0.70;;;;;;;22.29;51.93;100702.97;4867840;29;20095;-74
2021/06/13 11:17:59;;;;;;;1.65;0.70;;;;;;;22.69;51.11;100691.66;4879691;29;20123;-73
2021/06/13 11:23:07;;;;;;;2.08;1.00;;;;;;;22.61;51.29;100689.59;4882181;29;20045;-73
2021/06/13 11:25:38;;;;;;;1.30;0.68;;;;;;;22.90;50.87;100681.09;4878553;29;20056;-73
2021/06/13 11:28:24;;;;;;;1.80;0.85;;;;;;;22.86;50.36;100682.03;4881649;29;20754;-73
2021/06/13 11:31:08;;;;;;;5.55;1.25;;;;;;;22.88;50.24;100686.09;4887191;29;20048;-73
2021/06/13 11:33:55;;;;;;;2.33;0.80;;;;;;;23.05;49.91;100687.44;4882777;29;20041;-73
2021/06/13 11:36:25;;;;;;;3.75;0.70;;;;;;;23.52;49.14;100674.44;4869029;29;20060;-73